Flight Track Log - Related Links

Times and Time Zones

All times are in EDT time to prevent confusion due to time zone crossing. See the TAM3420 flight status page for this flight to view local times or setup timezone preferences in your user account.

Time Position Orientation Groundspeed Altitude Reporting Facility
EDT Latitude Longitude Course Direction KTS MPH feet Rate Location/Type
Thu 02:14:23 PM -1.3790 -48.4760 North 150 173  Level FlightAware ADS-B
Thu 02:14:51 PM -1.3670 -48.4630 47° Northeast 163 188 800 1,900 Climbing FlightAware ADS-B
Thu 02:15:23 PM -1.3490 -48.4450 45° Northeast 162 186 1,900 2,053 Climbing FlightAware ADS-B
Thu 02:15:29 PM -1.3450 -48.4420 37° Northeast 162 186 2,100 1,714 Climbing FlightAware ADS-B
Thu 02:15:58 PM -1.3270 -48.4240 45° Northeast 191 220 2,900 1,778 Climbing FlightAware ADS-B
Thu 02:16:23 PM -1.3090 -48.4230 North 203 234 3,700 2,250 Climbing FlightAware ADS-B
Thu 02:16:38 PM -1.2970 -48.4360 313° West 205 236 4,400 2,308 Climbing FlightAware ADS-B
Thu 02:16:49 PM -1.2950 -48.4440 284° West 210 242 4,700 1,333 Climbing FlightAware ADS-B
Thu 02:17:23 PM -1.3100 -48.4760 245° Southwest 244 281 5,400 1,574 Climbing FlightAware ADS-B
Thu 02:17:50 PM -1.3300 -48.5030 233° Southwest 275 316 6,300 1,962 Climbing FlightAware ADS-B
Thu 02:18:15 PM -1.3470 -48.5250 232° Southwest 297 342 7,100 2,681 Climbing FlightAware ADS-B
Thu 02:18:37 PM -1.3700 -48.5520 230° Southwest 300 345 8,400 3,243 Climbing FlightAware ADS-B
Thu 02:18:52 PM -1.3850 -48.5690 229° Southwest 304 350 9,100 2,512 Climbing FlightAware ADS-B
Thu 02:19:20 PM -1.3950 -48.6060 255° West 320 368 10,200 1,741 Climbing FlightAware ADS-B
Thu 02:21:00 PM -1.4192 -48.7503 260° West  Level Estimated
Thu 02:22:00 PM -1.4337 -48.8368 260° West  Level Estimated
Thu 02:23:00 PM -1.4482 -48.9234 260° West  Level Estimated
Thu 02:24:00 PM -1.4627 -49.0099 260° West  Level Estimated
Thu 02:25:00 PM -1.4772 -49.0965 260° West  Level Estimated
Thu 02:26:00 PM -1.4918 -49.1830 260° West  Level Estimated
Thu 02:27:00 PM -1.5063 -49.2696 260° West  Level Estimated
Thu 02:28:00 PM -1.5208 -49.3562 260° West  Level Estimated
Thu 02:29:00 PM -1.5352 -49.4427 260° West  Level Estimated
Thu 02:29:02 PM -1.5290 -49.5790 260° West 445 512 26,800  Level FlightAware ADS-B
Thu 02:29:32 PM -1.5570 -49.7340 260° West 451 519 27,600 1,233 Climbing FlightAware ADS-B
Thu 02:30:15 PM -1.5720 -49.8180 260° West 457 526 28,300 989 Climbing FlightAware ADS-B
Thu 02:31:03 PM -1.5920 -49.9290 260° West 469 540 29,100 894 Climbing FlightAware ADS-B
Thu 02:31:49 PM -1.6090 -50.0230 260° West 479 551 29,700 867 Climbing FlightAware ADS-B
Thu 02:32:26 PM -1.6240 -50.1040 260° West 484 557 30,300 1,013 Climbing FlightAware ADS-B
Thu 02:33:06 PM -1.6410 -50.1990 260° West 487 560 31,000 1,407 Climbing FlightAware ADS-B
Thu 02:33:47 PM -1.6560 -50.2840 260° West 478 550 32,200 1,806 Climbing FlightAware ADS-B
Thu 02:34:39 PM -1.6760 -50.3950 260° West 462 532 33,800 1,778 Climbing FlightAware ADS-B
Thu 02:35:35 PM -1.6970 -50.5080 259° West 445 512 35,400 1,361 Climbing FlightAware ADS-B
Thu 02:36:16 PM -1.7130 -50.5960 260° West 449 517 36,000 474 Climbing FlightAware ADS-B
Thu 02:36:51 PM -1.7250 -50.6630 260° West 446 513 36,000  Level FlightAware ADS-B
Thu 02:37:31 PM -1.7400 -50.7480 260° West 450 518 36,000  Level FlightAware ADS-B
Thu 02:38:12 PM -1.7540 -50.8280 260° West 451 519 36,000  Level FlightAware ADS-B
Thu 02:38:52 PM -1.7690 -50.9120 260° West 451 519 36,000  Level FlightAware ADS-B
Thu 02:39:36 PM -1.7860 -51.0030 259° West 450 518 36,000  Level FlightAware ADS-B
Thu 02:40:22 PM -1.8030 -51.0970 260° West 448 516 36,000  Level FlightAware ADS-B
Thu 02:41:02 PM -1.8180 -51.1820 260° West 447 514 36,000  Level FlightAware ADS-B
Thu 02:41:38 PM -1.8300 -51.2480 260° West 445 512 36,000  Level FlightAware ADS-B
Thu 02:42:17 PM -1.8440 -51.3270 260° West 444 511 36,000  Level FlightAware ADS-B
Thu 02:43:02 PM -1.8610 -51.4210 260° West 442 509 36,000  Level FlightAware ADS-B
Thu 02:43:43 PM -1.8750 -51.5000 260° West 441 507 36,000  Level FlightAware ADS-B
Thu 02:44:22 PM -1.8900 -51.5830 260° West 440 506 36,000  Level FlightAware ADS-B
Thu 02:45:05 PM -1.9050 -51.6640 260° West 440 506 36,000  Level FlightAware ADS-B
Thu 02:45:45 PM -1.9190 -51.7430 260° West 440 506 36,000  Level FlightAware ADS-B
Thu 02:46:38 PM -1.9380 -51.8500 260° West 438 504 36,000  Level FlightAware ADS-B
Thu 02:47:18 PM -1.9530 -51.9320 260° West 438 504 36,000  Level FlightAware ADS-B
Thu 02:47:48 PM -1.9620 -51.9830 260° West 437 503 36,000  Level FlightAware ADS-B
Thu 02:48:24 PM -1.9760 -52.0620 260° West 437 503 36,000  Level FlightAware ADS-B
Thu 02:49:05 PM -1.9900 -52.1430 260° West 437 503 36,000  Level FlightAware ADS-B
Thu 02:49:45 PM -2.0040 -52.2250 260° West 436 502 36,000  Level FlightAware ADS-B
Thu 02:50:27 PM -2.0150 -52.2950 261° West 436 502 36,000  Level FlightAware ADS-B
Thu 02:51:07 PM -2.0270 -52.3620 260° West 436 502 36,000  Level FlightAware ADS-B
Thu 02:52:13 PM -2.0280 -52.3660 256° West 435 501 36,000  Level FlightAware ADS-B
Thu 02:52:49 PM -2.0630 -52.5850 261° West 434 499 36,000  Level FlightAware ADS-B
Thu 02:53:31 PM -2.0770 -52.6680 260° West 435 501 36,000 -1,024 Level FlightAware ADS-B
Thu 02:54:11 PM -2.0890 -52.7420 261° West 448 516 34,600 -816 Descending FlightAware ADS-B
Thu 02:55:14 PM -2.1080 -52.8520 260° West 448 516 34,600  Level FlightAware ADS-B
Thu 02:55:51 PM -2.1190 -52.9160 260° West 448 516 34,600  Level FlightAware ADS-B
Thu 02:56:39 PM -2.1340 -52.9990 260° West 448 516 34,600  Level FlightAware ADS-B
Thu 02:57:15 PM -2.1450 -53.0620 260° West 448 516 34,600  Level FlightAware ADS-B
Thu 02:58:03 PM -2.1600 -53.1450 260° West 448 516 34,600  Level FlightAware ADS-B
Thu 02:58:39 PM -2.1710 -53.2080 260° West 448 516 34,600  Level FlightAware ADS-B
Thu 02:59:27 PM -2.1860 -53.2910 260° West 448 516 34,600  Level FlightAware ADS-B
Thu 03:00:04 PM -2.1970 -53.3550 260° West 448 516 34,600  Level FlightAware ADS-B
Thu 03:01:02 PM -2.2150 -53.4560 260° West 448 516 34,600  Level FlightAware ADS-B
Thu 03:01:38 PM -2.2260 -53.5180 260° West 448 516 34,600  Level FlightAware ADS-B
Thu 03:02:26 PM -2.2400 -53.6020 261° West 448 516 34,600  Level FlightAware ADS-B
Thu 03:03:03 PM -2.2520 -53.6660 259° West 448 516 34,600  Level FlightAware ADS-B
Thu 03:03:52 PM -2.2670 -53.7510 260° West 448 516 34,600  Level FlightAware ADS-B
Thu 03:06:00 PM -2.2947 -53.9363 261° West  Level Estimated
Thu 03:07:00 PM -2.3077 -54.0231 261° West  Level Estimated
Thu 03:08:00 PM -2.3207 -54.1099 261° West  Level Estimated
Thu 03:09:00 PM -2.3336 -54.1968 262° West  Level Estimated
Thu 03:10:00 PM -2.3466 -54.2836 262° West  Level Estimated
Thu 03:11:00 PM -2.3595 -54.3705 262° West  Level Estimated
Thu 03:12:00 PM -2.3725 -54.4573 262° West  Level Estimated
Thu 03:13:00 PM -2.3854 -54.5442 262° West  Level Estimated
Thu 03:14:00 PM -2.3984 -54.6310 262° West  Level Estimated
Thu 03:15:00 PM -2.4113 -54.7179 262° West  Level Estimated
Thu 03:16:00 PM -2.4224 -54.7928 262° West  Level Estimated
Thu 03:17:00 PM -2.4224 -54.7928 135° Southeast  Level Estimated
Thu 03:18:00 PM -2.4224 -54.7928 135° Southeast  Level Estimated
Thu 03:19:00 PM -2.4224 -54.7928 135° Southeast  Level Estimated
Thu 03:20:00 PM -2.4224 -54.7928 135° Southeast  Level Estimated
Thu 03:21:00 PM -2.4224 -54.7928 135° Southeast  Level Estimated
Thu 03:22:00 PM -2.4224 -54.7928 135° Southeast  Level Estimated
Thu 03:23:00 PM -2.4224 -54.7928 135° Southeast  Level Estimated
Thu 03:24:00 PM -2.4224 -54.7928 135° Southeast  Level Estimated
Thu 03:25:00 PM -2.4224 -54.7928 135° Southeast  Level Estimated
Thu 03:26:00 PM -2.4224 -54.7928 135° Southeast  Level Estimated
Thu 03:27:00 PM -2.4224 -54.7928 135° Southeast  Level Estimated
Thu 03:28:00 PM -2.4224 -54.7928 135° Southeast  Level Estimated
Thu 03:29:00 PM -2.4224 -54.7928 135° Southeast  Level Estimated
Thu 03:30:00 PM -2.4224 -54.7928 135° Southeast  Level Estimated
Thu 03:31:00 PM -2.4224 -54.7928 135° Southeast  Level Estimated
Thu 03:32:00 PM -2.4224 -54.7928 135° Southeast  Level Estimated
Thu 03:33:00 PM -2.4224 -54.7928 135° Southeast  Level Estimated
Thu 03:34:00 PM -2.4224 -54.7928 135° Southeast  Level Estimated

Login

Don't have an account? Register now (free) for customized features, flight alerts, and more!